Time;durP1;ratioP1;P1;durP2;ratioP2;P2;SDS_P1;SDS_P2;PMS_P1;PMS_P2;Temp;Humidity;BMP_temperature;BMP_pressure;BME280_temperature;BME280_humidity;BME280_pressure;Samples;Min_cycle;Max_cycle;Signal;HPM_P1;HPM_P2
2023/04/19 00:00:39;;;;;;;34.97;18.67;;;6.80;99.90;;;;;;5028725;28;20054;-90
2023/04/19 00:03:17;;;;;;;36.40;18.85;;;6.80;99.90;;;;;;5015704;28;20464;-89
2023/04/19 00:05:43;;;;;;;31.55;17.10;;;6.80;99.90;;;;;;5031511;28;20033;-90
2023/04/19 00:08:09;;;;;;;33.88;18.42;;;6.80;99.90;;;;;;5032867;28;20029;-89
2023/04/19 00:10:35;;;;;;;31.70;17.67;;;6.80;99.90;;;;;;5031699;28;20026;-89
2023/04/19 00:13:01;;;;;;;32.33;17.42;;;6.80;99.90;;;;;;5033725;28;20064;-89
2023/04/19 00:15:27;;;;;;;33.30;17.67;;;6.80;99.90;;;;;;5015210;28;20121;-89
2023/04/19 00:17:52;;;;;;;28.30;16.60;;;6.80;99.90;;;;;;5050747;28;20067;-89
2023/04/19 00:20:19;;;;;;;32.95;17.77;;;6.80;99.90;;;;;;5034885;28;20021;-90
2023/04/19 00:22:45;;;;;;;31.90;17.05;;;6.80;99.90;;;;;;5019197;28;20022;-89
2023/04/19 00:25:10;;;;;;;30.92;15.85;;;6.80;99.90;;;;;;5014865;28;20026;-89
2023/04/19 00:27:36;;;;;;;43.78;21.33;;;6.80;99.90;;;;;;5043532;28;20469;-89
2023/04/19 00:30:02;;;;;;;27.35;16.15;;;6.70;99.90;;;;;;5032050;28;20026;-89
2023/04/19 00:32:30;;;;;;;25.92;14.88;;;6.70;99.90;;;;;;5027919;28;20037;-89
2023/04/19 00:34:56;;;;;;;31.83;16.10;;;6.70;99.90;;;;;;5030392;28;20025;-89
2023/04/19 00:37:22;;;;;;;28.38;16.15;;;6.70;99.90;;;;;;5026235;28;20030;-88
2023/04/19 00:39:48;;;;;;;25.90;15.00;;;6.70;99.90;;;;;;5029466;28;20025;-90
2023/04/19 00:42:13;;;;;;;24.75;14.77;;;6.70;99.90;;;;;;5022506;28;20104;-89
2023/04/19 00:44:39;;;;;;;24.48;14.63;;;6.70;99.90;;;;;;5031133;28;20030;-89
2023/04/19 00:47:05;;;;;;;31.80;15.45;;;6.70;99.90;;;;;;5023637;28;20056;-89
2023/04/19 00:49:31;;;;;;;25.95;14.13;;;6.70;99.90;;;;;;5030971;28;20034;-89
2023/04/19 00:51:59;;;;;;;29.08;14.65;;;6.70;99.90;;;;;;5024950;28;20025;-89
2023/04/19 00:54:26;;;;;;;26.75;15.00;;;6.60;99.90;;;;;;5031879;28;20489;-89
2023/04/19 00:56:52;;;;;;;27.30;15.27;;;6.70;99.90;;;;;;5018441;28;20028;-90
2023/04/19 00:59:18;;;;;;;25.55;14.25;;;6.70;99.90;;;;;;5033121;28;20120;-89
2023/04/19 01:01:44;;;;;;;30.83;15.57;;;6.60;99.90;;;;;;5024602;28;20776;-89
2023/04/19 01:04:10;;;;;;;24.02;14.38;;;6.60;99.90;;;;;;5019277;28;20030;-89
2023/04/19 01:06:37;;;;;;;28.08;15.52;;;6.70;99.90;;;;;;5033924;28;20041;-89
2023/04/19 01:09:03;;;;;;;25.30;14.45;;;6.70;99.90;;;;;;5033501;28;20033;-90
2023/04/19 01:11:29;;;;;;;26.92;15.18;;;6.60;99.90;;;;;;5029143;28;20485;-89
2023/04/19 01:13:55;;;;;;;24.27;15.27;;;6.60;99.90;;;;;;5016416;28;20013;-89
2023/04/19 01:16:21;;;;;;;24.65;15.30;;;6.60;99.90;;;;;;5037015;28;20014;-90
2023/04/19 01:18:50;;;;;;;26.98;14.68;;;6.60;99.90;;;;;;5053157;28;20025;-90
2023/04/19 01:21:16;;;;;;;23.65;14.98;;;6.60;99.90;;;;;;5035456;28;20120;-87
2023/04/19 01:23:41;;;;;;;28.08;14.75;;;6.60;99.90;;;;;;5034830;28;20061;-90
2023/04/19 01:26:07;;;;;;;26.08;15.18;;;6.60;99.90;;;;;;5027635;28;20530;-89
2023/04/19 01:28:33;;;;;;;26.48;15.05;;;6.60;99.90;;;;;;5034942;28;20041;-89
2023/04/19 01:30:58;;;;;;;24.38;13.50;;;6.60;99.90;;;;;;5020836;28;20168;-90
2023/04/19 01:33:25;;;;;;;23.70;13.13;;;6.60;99.90;;;;;;5034983;28;20084;-89
2023/04/19 01:35:51;;;;;;;25.63;15.23;;;6.60;99.90;;;;;;5022414;28;20716;-89
2023/04/19 01:38:16;;;;;;;25.75;14.20;;;6.50;99.90;;;;;;5048526;28;20059;-89
2023/04/19 01:40:42;;;;;;;27.05;14.13;;;6.50;99.90;;;;;;5024257;28;20399;-89
2023/04/19 01:43:15;;;;;;;26.55;14.77;;;6.50;99.90;;;;;;5016218;28;20612;-89
2023/04/19 01:45:40;;;;;;;24.63;14.40;;;6.40;99.90;;;;;;5051914;28;20366;-89
2023/04/19 01:48:06;;;;;;;24.33;14.85;;;6.40;99.90;;;;;;5034403;28;20028;-90
2023/04/19 01:50:33;;;;;;;27.45;14.95;;;6.40;99.90;;;;;;5051668;28;20179;-89
2023/04/19 01:53:00;;;;;;;23.23;14.07;;;6.40;99.90;;;;;;5035171;28;20068;-90
2023/04/19 01:55:25;;;;;;;27.25;14.88;;;6.40;99.90;;;;;;5051715;28;20025;-89
2023/04/19 01:57:53;;;;;;;27.08;14.73;;;6.40;99.90;;;;;;5034536;28;20069;-90
2023/04/19 02:00:19;;;;;;;24.65;14.00;;;6.40;99.90;;;;;;5025717;28;20029;-89
2023/04/19 02:02:46;;;;;;;26.38;15.18;;;6.40;99.90;;;;;;5051197;28;20104;-90
2023/04/19 02:05:14;;;;;;;25.98;14.20;;;6.30;99.90;;;;;;5019537;28;20173;-89
2023/04/19 02:07:40;;;;;;;29.98;14.88;;;6.40;99.90;;;;;;5031523;28;20045;-90
2023/04/19 02:10:09;;;;;;;27.95;13.35;;;6.40;99.90;;;;;;5015232;28;20029;-89
2023/04/19 02:12:35;;;;;;;29.42;15.98;;;6.30;99.90;;;;;;5031562;28;20504;-89
2023/04/19 02:15:02;;;;;;;27.42;15.27;;;6.20;99.90;;;;;;5014897;28;20036;-90
2023/04/19 02:17:33;;;;;;;;;;;6.20;99.90;;;;;;5031739;28;20025;-89
2023/04/19 02:19:59;;;;;;;28.45;16.20;;;6.10;99.90;;;;;;5027088;28;20380;-89
2023/04/19 02:22:26;;;;;;;28.92;15.35;;;6.10;99.90;;;;;;5030998;28;20176;-89
2023/04/19 02:24:51;;;;;;;33.78;16.02;;;6.10;99.90;;;;;;5029785;28;20057;-89
2023/04/19 02:27:17;;;;;;;29.60;17.10;;;6.10;99.90;;;;;;5034340;28;20091;-89
2023/04/19 02:29:43;;;;;;;26.35;16.10;;;6.10;99.90;;;;;;5026852;28;20033;-88
2023/04/19 02:32:11;;;;;;;31.98;16.25;;;6.10;99.90;;;;;;5033466;28;20033;-89
2023/04/19 02:34:37;;;;;;;30.45;17.63;;;6.00;99.90;;;;;;5029871;28;20026;-90
2023/04/19 02:37:03;;;;;;;30.13;15.75;;;6.10;99.90;;;;;;5033682;28;20022;-88
2023/04/19 02:39:29;;;;;;;28.77;16.15;;;6.10;99.90;;;;;;5052735;28;20063;-90
2023/04/19 02:41:55;;;;;;;28.63;17.40;;;6.10;99.90;;;;;;5030772;28;20075;-89
2023/04/19 02:44:21;;;;;;;30.67;16.92;;;6.20;99.90;;;;;;5031529;28;20057;-89
2023/04/19 02:46:50;;;;;;;30.67;17.13;;;6.30;99.90;;;;;;5023584;28;20454;-89
2023/04/19 02:49:17;;;;;;;32.00;16.45;;;6.30;99.90;;;;;;5041157;28;20022;-89
2023/04/19 02:51:43;;;;;;;29.73;15.75;;;6.30;99.90;;;;;;5033577;28;20060;-90
2023/04/19 02:54:11;;;;;;;32.42;16.55;;;6.30;99.90;;;;;;5018708;28;20038;-89
2023/04/19 02:56:37;;;;;;;30.05;16.08;;;6.40;99.90;;;;;;5030494;28;20132;-89
2023/04/19 02:59:04;;;;;;;29.08;17.17;;;6.40;99.90;;;;;;5015466;28;20080;-90
2023/04/19 03:01:30;;;;;;;36.15;17.73;;;6.40;99.90;;;;;;5050639;28;20026;-89
2023/04/19 03:03:57;;;;;;;25.40;16.27;;;6.40;99.90;;;;;;5018233;28;20123;-89
2023/04/19 03:06:23;;;;;;;26.33;15.13;;;6.40;99.90;;;;;;5016832;28;20030;-89
2023/04/19 03:08:49;;;;;;;32.97;16.15;;;6.40;99.90;;;;;;5050952;28;20025;-89
2023/04/19 03:11:17;;;;;;;31.73;15.68;;;6.40;99.90;;;;;;5032485;28;20056;-89
2023/04/19 03:13:43;;;;;;;25.15;15.60;;;6.30;99.90;;;;;;5030492;28;20029;-90
2023/04/19 03:16:11;;;;;;;29.25;16.17;;;6.20;99.90;;;;;;5016296;28;20535;-89
2023/04/19 03:18:37;;;;;;;32.10;17.35;;;6.20;99.90;;;;;;5030471;28;20112;-89
2023/04/19 03:21:04;;;;;;;32.45;16.95;;;6.10;99.90;;;;;;5031648;28;20022;-89
2023/04/19 03:23:37;;;;;;;35.70;19.20;;;5.90;99.90;;;;;;5025646;28;20058;-90
2023/04/19 03:26:03;;;;;;;34.22;17.92;;;5.70;99.90;;;;;;5043389;28;20674;-89
2023/04/19 03:28:55;;;;;;;40.17;19.05;;;5.60;99.90;;;;;;5021199;28;20525;-88
2023/04/19 03:31:26;;;;;;;34.92;18.63;;;5.40;99.90;;;;;;5032512;28;20101;-89
2023/04/19 03:33:53;;;;;;;41.70;19.92;;;5.40;99.90;;;;;;5034009;28;20124;-88
2023/04/19 03:36:22;;;;;;;34.63;18.67;;;5.30;99.90;;;;;;5020540;28;20021;-88
2023/04/19 03:38:49;;;;;;;36.47;20.55;;;5.20;99.90;;;;;;5020079;28;20026;-89
2023/04/19 03:41:22;;;;;;;44.67;20.48;;;5.00;99.90;;;;;;5013395;28;20026;-88
2023/04/19 03:43:53;;;;;;;42.50;21.13;;;5.00;99.90;;;;;;5021235;28;20037;-89
2023/04/19 03:46:19;;;;;;;43.83;20.88;;;4.90;99.90;;;;;;5013908;28;20084;-88
2023/04/19 03:48:45;;;;;;;48.03;22.00;;;4.80;99.90;;;;;;5022975;28;20472;-89
2023/04/19 03:51:12;;;;;;;37.38;19.35;;;4.80;99.90;;;;;;5045006;28;20724;-86
2023/04/19 03:53:38;;;;;;;41.13;20.38;;;4.70;99.90;;;;;;5029908;28;20097;-88
2023/04/19 03:56:04;;;;;;;48.22;21.33;;;4.60;99.90;;;;;;5028150;28;20061;-89
2023/04/19 03:58:32;;;;;;;43.30;20.77;;;4.50;99.90;;;;;;5026931;28;20022;-89
2023/04/19 04:01:03;;;;;;;45.08;22.08;;;4.50;99.90;;;;;;5013298;28;20056;-88
2023/04/19 04:03:31;;;;;;;47.65;22.52;;;4.50;99.90;;;;;;5023908;28;20048;-88
2023/04/19 04:05:57;;;;;;;47.90;22.67;;;4.40;99.90;;;;;;5034000;28;20037;-89
2023/04/19 04:08:23;;;;;;;52.30;23.85;;;4.40;99.90;;;;;;5026855;28;20037;-89
2023/04/19 04:10:48;;;;;;;50.63;23.17;;;4.40;99.90;;;;;;5051337;28;20041;-87
2023/04/19 04:13:14;;;;;;;44.53;22.92;;;4.60;99.90;;;;;;5068550;28;20097;-88
2023/04/19 04:15:48;;;;;;;49.47;23.95;;;4.60;99.90;;;;;;5052169;28;20053;-88
2023/04/19 04:18:16;;;;;;;51.40;24.40;;;4.70;99.90;;;;;;5040265;28;20501;-89
2023/04/19 04:20:43;;;;;;;52.90;24.80;;;4.60;99.90;;;;;;5030610;28;20473;-89
2023/04/19 04:23:10;;;;;;;49.17;23.50;;;4.60;99.90;;;;;;5033396;28;20018;-89
2023/04/19 04:25:41;;;;;;;44.95;21.90;;;4.50;99.90;;;;;;5028750;28;20018;-88
2023/04/19 04:28:10;;;;;;;53.25;24.33;;;4.40;99.90;;;;;;5032020;28;20105;-88
2023/04/19 04:30:39;;;;;;;54.78;24.63;;;4.30;99.90;;;;;;5019509;28;20025;-88
2023/04/19 04:33:10;;;;;;;59.53;26.10;;;4.30;99.90;;;;;;5030541;28;20021;-88
2023/04/19 04:35:38;;;;;;;57.28;26.75;;;4.50;99.90;;;;;;5027935;28;20584;-88
2023/04/19 04:38:09;;;;;;;58.50;24.55;;;4.50;99.90;;;;;;5017889;28;20488;-89
2023/04/19 04:40:40;;;;;;;58.92;25.52;;;4.50;99.90;;;;;;5021783;28;20129;-89
2023/04/19 04:43:07;;;;;;;58.10;26.95;;;4.50;99.90;;;;;;5020342;28;20022;-88
2023/04/19 04:45:33;;;;;;;59.90;26.63;;;4.50;99.90;;;;;;5027336;28;20026;-89
2023/04/19 04:48:00;;;;;;;61.00;26.45;;;4.70;99.90;;;;;;5015603;28;20025;-88
2023/04/19 04:50:26;;;;;;;60.95;27.75;;;4.60;99.90;;;;;;5027844;28;20500;-89
2023/04/19 04:52:52;;;;;;;64.75;28.52;;;4.70;99.90;;;;;;5035403;28;20032;-89
2023/04/19 04:55:24;;;;;;;66.22;29.30;;;4.70;99.90;;;;;;5027725;28;20061;-89
2023/04/19 04:57:50;;;;;;;76.15;31.25;;;4.70;99.90;;;;;;5036101;28;20029;-90
2023/04/19 05:00:24;;;;;;;70.10;30.23;;;4.80;99.90;;;;;;5028042;28;20030;-89
2023/04/19 05:02:58;;;;;;;80.97;33.25;;;4.90;99.90;;;;;;5042374;28;20476;-89
2023/04/19 05:05:28;;;;;;;83.15;35.70;;;5.00;99.90;;;;;;5020612;28;20030;-90
2023/04/19 05:07:54;;;;;;;79.18;32.78;;;5.10;99.90;;;;;;5033633;28;20025;-89
2023/04/19 05:10:20;;;;;;;91.18;35.30;;;5.30;99.90;;;;;;5017825;28;20041;-90
2023/04/19 05:12:47;;;;;;;81.75;34.35;;;5.30;99.90;;;;;;5032385;28;20389;-89
2023/04/19 05:15:31;;;;;;;82.47;34.80;;;5.40;99.90;;;;;;5032887;28;20040;-89
2023/04/19 05:17:57;;;;;;;91.78;40.67;;;5.60;99.90;;;;;;5040942;28;20488;-89
2023/04/19 05:20:24;;;;;;;86.15;39.05;;;5.80;99.90;;;;;;5031161;28;20026;-89
2023/04/19 05:23:00;;;;;;;79.65;35.45;;;5.90;99.90;;;;;;5026485;28;20029;-89
2023/04/19 05:25:26;;;;;;;78.15;34.15;;;6.10;99.90;;;;;;5016170;28;20128;-89
2023/04/19 05:27:52;;;;;;;75.30;33.58;;;6.20;99.90;;;;;;5053403;28;20026;-89
2023/04/19 05:30:18;;;;;;;70.50;32.38;;;6.30;99.90;;;;;;5035766;28;20079;-89
2023/04/19 05:32:45;;;;;;;73.05;33.45;;;6.40;99.90;;;;;;5031543;28;20080;-90
2023/04/19 05:35:13;;;;;;;71.00;32.95;;;6.50;99.90;;;;;;5033644;28;20083;-88
2023/04/19 05:37:40;;;;;;;70.90;31.75;;;6.60;99.90;;;;;;5052908;28;20018;-89
2023/04/19 05:40:08;;;;;;;67.72;31.30;;;6.60;99.90;;;;;;5033081;28;20057;-88
2023/04/19 05:42:35;;;;;;;66.82;30.95;;;6.70;99.90;;;;;;5019224;28;20053;-88
2023/04/19 05:45:01;;;;;;;55.42;27.52;;;6.80;99.90;;;;;;5030315;28;20026;-89
2023/04/19 05:47:27;;;;;;;59.30;28.15;;;7.00;99.90;;;;;;5018078;28;20064;-89
2023/04/19 05:49:58;;;;;;;;;;;7.10;99.90;;;;;;5033332;28;20034;-89
2023/04/19 05:52:29;;;;;;;51.95;26.45;;;7.30;99.90;;;;;;5020431;28;19909;-89
2023/04/19 05:54:58;;;;;;;47.20;24.85;;;7.40;99.90;;;;;;5033356;28;20391;-88
2023/04/19 05:57:23;;;;;;;49.17;24.67;;;7.50;99.90;;;;;;5033635;28;20032;-90
2023/04/19 05:59:49;;;;;;;41.80;23.35;;;7.40;99.90;;;;;;5032805;28;20026;-89
2023/04/19 06:02:19;;;;;;;42.95;22.77;;;7.60;99.90;;;;;;5033162;28;20496;-90
2023/04/19 06:04:45;;;;;;;41.65;23.35;;;7.70;99.90;;;;;;5027324;28;20030;-89
2023/04/19 06:07:11;;;;;;;37.47;21.20;;;7.80;99.90;;;;;;5013419;28;20073;-89
2023/04/19 06:09:44;;;;;;;39.38;22.60;;;7.90;99.90;;;;;;5024449;28;20033;-89
2023/04/19 06:12:09;;;;;;;33.08;20.00;;;8.00;99.90;;;;;;5026082;28;20033;-89
2023/04/19 06:14:35;;;;;;;35.60;20.15;;;8.00;99.90;;;;;;5035299;28;20033;-90
2023/04/19 06:17:01;;;;;;;35.30;20.92;;;7.90;99.90;;;;;;5052677;28;20064;-90
2023/04/19 06:19:27;;;;;;;37.75;20.77;;;7.70;99.90;;;;;;5025624;28;20804;-89
2023/04/19 06:21:53;;;;;;;38.90;21.48;;;7.50;99.90;;;;;;5052081;28;20005;-89
2023/04/19 06:24:18;;;;;;;35.78;20.77;;;7.40;99.90;;;;;;5026121;28;20079;-89
2023/04/19 06:26:47;;;;;;;42.88;22.27;;;7.50;99.90;;;;;;5023707;28;20466;-89
2023/04/19 06:29:12;;;;;;;41.67;21.65;;;7.50;99.90;;;;;;5018665;28;20042;-89
2023/04/19 06:31:38;;;;;;;39.85;20.05;;;7.70;99.90;;;;;;5015554;28;20093;-89
2023/04/19 06:34:04;;;;;;;29.92;18.30;;;7.80;99.90;;;;;;5020815;28;20034;-89
2023/04/19 06:36:31;;;;;;;31.75;18.67;;;8.00;99.90;;;;;;5015427;28;20421;-89
2023/04/19 06:38:56;;;;;;;37.28;19.92;;;8.10;99.90;;;;;;5051604;28;20376;-89
2023/04/19 06:41:22;;;;;;;35.55;20.10;;;8.20;99.90;;;;;;5029687;28;20032;-89
2023/04/19 06:43:48;;;;;;;31.02;17.10;;;8.40;99.90;;;;;;5036311;28;20081;-90
2023/04/19 06:46:14;;;;;;;31.52;18.05;;;8.60;99.90;;;;;;5015886;28;20026;-89
2023/04/19 06:48:40;;;;;;;27.70;17.42;;;8.80;99.90;;;;;;5020182;28;20910;-89
2023/04/19 06:51:06;;;;;;;29.90;17.60;;;9.00;99.90;;;;;;5012334;28;20030;-89
2023/04/19 06:53:33;;;;;;;31.77;15.65;;;9.20;99.90;;;;;;5024773;28;20041;-89
2023/04/19 06:56:00;;;;;;;24.98;15.05;;;9.30;99.90;;;;;;5032412;28;20607;-89
2023/04/19 06:58:27;;;;;;;23.08;15.05;;;9.60;99.90;;;;;;5026328;28;20032;-89
2023/04/19 07:00:53;;;;;;;26.48;16.08;;;9.70;99.90;;;;;;5033554;28;20045;-90
2023/04/19 07:03:19;;;;;;;26.45;16.92;;;9.60;99.90;;;;;;5034689;28;20041;-89
2023/04/19 07:05:45;;;;;;;29.33;17.25;;;9.60;99.90;;;;;;5016383;28;20473;-90
2023/04/19 07:08:10;;;;;;;29.05;18.17;;;9.50;99.90;;;;;;5021338;28;20022;-89
2023/04/19 07:10:36;;;;;;;24.05;15.98;;;9.40;99.90;;;;;;5018896;28;20113;-90
2023/04/19 07:13:02;;;;;;;29.17;14.77;;;9.50;99.90;;;;;;5041132;28;20033;-90
2023/04/19 07:15:28;;;;;;;25.20;14.85;;;9.40;99.90;;;;;;5017386;28;20038;-90
2023/04/19 07:17:53;;;;;;;30.63;16.98;;;9.50;99.90;;;;;;5026307;28;20389;-89
2023/04/19 07:20:20;;;;;;;25.00;16.17;;;9.50;99.90;;;;;;5031085;28;20026;-89
2023/04/19 07:22:46;;;;;;;25.23;15.70;;;9.50;99.90;;;;;;5027545;28;20370;-90
2023/04/19 07:25:13;;;;;;;26.23;16.25;;;9.50;99.90;;;;;;5028686;28;20095;-90
2023/04/19 07:27:39;;;;;;;27.83;16.35;;;9.50;99.90;;;;;;5022716;28;20066;-89
2023/04/19 07:30:05;;;;;;;21.95;14.85;;;9.60;99.90;;;;;;5033548;28;20030;-89
2023/04/19 07:32:31;;;;;;;25.92;15.35;;;9.40;99.90;;;;;;5024701;28;20033;-90
2023/04/19 07:34:57;;;;;;;23.48;15.90;;;9.30;99.90;;;;;;5021292;28;20069;-90
2023/04/19 07:37:23;;;;;;;24.52;14.98;;;9.50;99.90;;;;;;5025708;28;20037;-90
2023/04/19 07:39:48;;;;;;;26.80;15.35;;;9.50;99.90;;;;;;5031489;28;20026;-90
2023/04/19 07:42:14;;;;;;;21.52;14.70;;;9.80;99.90;;;;;;5018294;28;20760;-90
2023/04/19 07:44:40;;;;;;;26.27;15.55;;;9.80;99.90;;;;;;5032133;28;20031;-89
2023/04/19 07:47:05;;;;;;;19.77;14.18;;;9.80;99.90;;;;;;5035948;28;20037;-89
2023/04/19 07:49:33;;;;;;;19.98;14.15;;;9.90;99.90;;;;;;5029271;28;20038;-89
2023/04/19 07:52:05;;;;;;;21.73;14.23;;;9.70;99.90;;;;;;5024420;28;20045;-89
2023/04/19 07:54:31;;;;;;;27.77;14.70;;;9.80;99.90;;;;;;5031144;28;20029;-91
2023/04/19 07:56:57;;;;;;;25.13;14.07;;;9.80;99.90;;;;;;5013553;28;20910;-90
2023/04/19 07:59:23;;;;;;;20.35;13.05;;;9.80;99.90;;;;;;5029333;28;20365;-89
2023/04/19 08:01:49;;;;;;;19.58;12.75;;;9.90;99.90;;;;;;5027369;28;20030;-89
2023/04/19 08:04:16;;;;;;;17.90;12.48;;;10.10;99.90;;;;;;5028647;28;20037;-89
2023/04/19 08:06:42;;;;;;;19.67;12.13;;;10.40;99.90;;;;;;5023018;28;20037;-89
2023/04/19 08:09:08;;;;;;;61.63;34.40;;;10.70;99.90;;;;;;5035191;28;20497;-89
2023/04/19 08:11:34;;;;;;;20.13;13.30;;;10.90;99.90;;;;;;5028741;28;20033;-89
2023/04/19 08:13:59;;;;;;;19.33;11.60;;;11.00;99.90;;;;;;5035676;28;20025;-89
2023/04/19 08:16:26;;;;;;;16.92;11.80;;;11.20;99.90;;;;;;5021833;28;20088;-89
2023/04/19 08:18:52;;;;;;;22.55;12.75;;;11.40;99.90;;;;;;5036083;28;20049;-89
2023/04/19 08:21:20;;;;;;;18.80;11.50;;;11.10;99.90;;;;;;5022840;28;20029;-89
2023/04/19 08:23:46;;;;;;;22.65;14.40;;;10.70;99.90;;;;;;5039418;28;20056;-89
2023/04/19 08:26:12;;;;;;;17.42;12.07;;;10.50;99.90;;;;;;5023767;28;20724;-89
2023/04/19 08:28:38;;;;;;;18.20;11.75;;;10.70;99.90;;;;;;5018375;28;20120;-90
2023/04/19 08:31:09;;;;;;;14.70;10.30;;;11.00;99.90;;;;;;5028612;28;20038;-90
2023/04/19 08:33:35;;;;;;;19.25;12.50;;;11.10;99.90;;;;;;5017915;28;20034;-90
2023/04/19 08:36:01;;;;;;;22.10;13.57;;;11.40;99.90;;;;;;5016941;28;20087;-89
2023/04/19 08:38:26;;;;;;;18.65;12.38;;;11.50;99.90;;;;;;5030495;28;20022;-89
2023/04/19 08:40:56;;;;;;;20.10;13.75;;;11.40;99.90;;;;;;5031274;28;20061;-89
2023/04/19 08:43:25;;;;;;;20.05;11.02;;;11.20;99.90;;;;;;5017206;28;20131;-89
2023/04/19 08:45:51;;;;;;;18.65;11.10;;;10.80;99.90;;;;;;5019432;28;20025;-89
2023/04/19 08:48:17;;;;;;;20.80;12.90;;;10.70;99.90;;;;;;5032726;28;20396;-88
2023/04/19 08:50:47;;;;;;;21.30;12.70;;;10.50;99.90;;;;;;5019424;28;20029;-89
2023/04/19 08:53:14;;;;;;;18.52;12.10;;;10.40;99.90;;;;;;5032306;28;20030;-88
2023/04/19 08:55:42;;;;;;;22.17;12.43;;;10.30;99.90;;;;;;5034909;28;20030;-89
2023/04/19 08:58:08;;;;;;;21.38;11.88;;;10.40;99.90;;;;;;5031428;28;20736;-89
2023/04/19 09:00:37;;;;;;;25.02;12.57;;;10.50;99.90;;;;;;5017192;28;20040;-89
2023/04/19 09:03:06;;;;;;;18.95;13.02;;;10.60;99.90;;;;;;5026121;28;20385;-89
2023/04/19 09:05:32;;;;;;;16.50;12.27;;;10.60;99.90;;;;;;5033084;28;20037;-88
2023/04/19 09:08:25;;;;;;;20.98;13.00;;;10.70;99.90;;;;;;5024509;28;20056;-88
2023/04/19 09:10:59;;;;;;;25.63;13.43;;;10.70;99.90;;;;;;5032150;28;20029;-88
2023/04/19 09:13:25;;;;;;;18.38;11.65;;;10.70;99.90;;;;;;5015291;28;20153;-89
2023/04/19 09:15:52;;;;;;;17.48;12.20;;;10.70;99.90;;;;;;5031694;28;20033;-89
2023/04/19 09:18:18;;;;;;;25.48;12.77;;;10.60;99.90;;;;;;5027490;28;20037;-89
2023/04/19 09:20:45;;;;;;;22.40;13.50;;;10.50;99.90;;;;;;5016734;28;20152;-90
2023/04/19 09:23:14;;;;;;;19.70;12.93;;;10.30;99.90;;;;;;5029431;28;20076;-88
2023/04/19 09:25:53;;;;;;;22.02;13.32;;;10.20;99.90;;;;;;5017680;28;20057;-88
2023/04/19 09:28:19;;;;;;;20.55;12.18;;;10.30;99.90;;;;;;5032201;28;20099;-88
2023/04/19 09:30:46;;;;;;;23.73;13.75;;;10.20;99.90;;;;;;5018402;28;20041;-89
2023/04/19 09:33:12;;;;;;;20.83;14.18;;;10.10;99.90;;;;;;5033049;28;20034;-90
2023/04/19 09:35:43;;;;;;;26.88;16.35;;;10.00;99.90;;;;;;5024114;28;20500;-89
2023/04/19 09:38:10;;;;;;;28.38;16.55;;;10.00;99.90;;;;;;5032691;28;20037;-88
2023/04/19 09:40:37;;;;;;;28.33;15.63;;;10.00;99.90;;;;;;5024979;28;20049;-89
2023/04/19 09:43:03;;;;;;;31.83;17.25;;;10.00;99.90;;;;;;5034249;28;20461;-89
2023/04/19 09:45:40;;;;;;;33.45;18.65;;;9.90;99.90;;;;;;5019304;28;20072;-89
2023/04/19 09:48:07;;;;;;;31.55;18.73;;;9.90;99.90;;;;;;5031996;28;20032;-90
2023/04/19 09:50:33;;;;;;;35.03;18.92;;;9.80;99.90;;;;;;5016026;28;20034;-89
2023/04/19 09:52:59;;;;;;;33.08;18.80;;;9.70;99.90;;;;;;5031369;28;20030;-90
2023/04/19 09:55:26;;;;;;;34.58;20.35;;;9.70;99.90;;;;;;5028676;28;20033;-90
2023/04/19 09:57:52;;;;;;;33.78;19.55;;;9.70;99.90;;;;;;5016521;28;20025;-90
2023/04/19 10:00:20;;;;;;;35.13;19.30;;;9.60;99.90;;;;;;5027114;28;20034;-90
2023/04/19 10:02:54;;;;;;;48.55;20.40;;;9.60;99.90;;;;;;5035010;28;20504;-89
2023/04/19 10:05:23;;;;;;;34.15;18.08;;;9.60;99.90;;;;;;5034450;28;20072;-90
2023/04/19 10:07:49;;;;;;;34.67;19.38;;;9.60;99.90;;;;;;5017492;28;20120;-89
2023/04/19 10:10:21;;;;;;;32.55;18.85;;;9.60;99.90;;;;;;5031374;28;20030;-90
2023/04/19 10:12:50;;;;;;;31.63;17.65;;;9.80;99.90;;;;;;5015915;28;20045;-90
2023/04/19 10:15:17;;;;;;;36.63;22.80;;;10.00;99.90;;;;;;5029712;28;20128;-90
2023/04/19 10:17:43;;;;;;;35.63;20.98;;;10.00;99.90;;;;;;5033846;28;20120;-90
2023/04/19 10:20:16;;;;;;;36.65;19.88;;;10.10;99.90;;;;;;5030531;28;20112;-89
2023/04/19 10:22:42;;;;;;;40.90;21.60;;;10.10;99.90;;;;;;5023766;28;20476;-90
2023/04/19 10:25:10;;;;;;;35.35;19.88;;;10.10;99.90;;;;;;5033844;28;20122;-90
2023/04/19 10:27:36;;;;;;;35.42;20.60;;;10.10;99.90;;;;;;5024911;28;20033;-90
2023/04/19 10:30:04;;;;;;;34.63;19.30;;;10.30;99.90;;;;;;5034668;28;20037;-90
2023/04/19 10:32:41;;;;;;;31.17;17.23;;;10.30;99.90;;;;;;5025343;28;20144;-90
2023/04/19 10:35:20;;;;;;;33.20;18.10;;;10.20;99.90;;;;;;5032883;28;20025;-89
2023/04/19 10:38:54;;;;;;;32.97;18.73;;;10.20;99.90;;;;;;5017703;28;20030;-89
2023/04/19 10:41:21;;;;;;;35.25;18.95;;;10.30;99.90;;;;;;4982246;28;20645;-90
2023/04/19 10:43:56;;;;;;;29.65;17.77;;;10.20;99.90;;;;;;4966230;28;20026;-89
2023/04/19 10:46:27;;;;;;;32.55;18.90;;;10.10;99.90;;;;;;4976953;28;20039;-90
2023/04/19 10:49:00;;;;;;;29.40;17.65;;;10.10;99.90;;;;;;4977589;28;20058;-90
2023/04/19 10:51:32;;;;;;;42.97;25.23;;;10.20;99.90;;;;;;4964587;28;20034;-90
2023/04/19 10:54:00;;;;;;;35.03;20.25;;;10.40;99.90;;;;;;5030816;28;20026;-90
2023/04/19 10:56:32;;;;;;;30.10;17.55;;;10.30;99.90;;;;;;5021475;28;20061;-91
2023/04/19 10:59:08;;;;;;;31.23;18.38;;;10.20;99.90;;;;;;5025425;28;20052;-90
2023/04/19 11:02:24;;;;;;;31.90;17.88;;;10.20;99.90;;;;;;5029430;28;20028;-89
2023/04/19 11:04:50;;;;;;;28.90;19.05;;;10.20;99.90;;;;;;5032924;28;20036;-90
2023/04/19 11:07:22;;;;;;;30.92;17.80;;;10.10;99.90;;;;;;5032425;28;20037;-90
2023/04/19 11:09:49;;;;;;;31.70;18.10;;;10.30;99.90;;;;;;5024138;28;20033;-89
2023/04/19 11:12:20;;;;;;;27.48;16.85;;;10.80;99.90;;;;;;5032704;28;20030;-89
2023/04/19 11:14:51;;;;;;;33.13;17.17;;;10.80;99.90;;;;;;5026731;28;20099;-90
2023/04/19 11:17:19;;;;;;;28.10;16.80;;;11.00;99.90;;;;;;5018949;28;20059;-90
2023/04/19 11:19:54;;;;;;;26.95;16.13;;;10.80;99.90;;;;;;5017445;28;20029;-90
2023/04/19 11:22:30;;;;;;;26.60;17.27;;;10.70;99.90;;;;;;5030377;28;20026;-90
2023/04/19 11:24:56;;;;;;;33.40;17.20;;;10.60;99.90;;;;;;5050486;28;20039;-89
2023/04/19 11:27:22;;;;;;;29.40;15.85;;;10.40;99.90;;;;;;5029834;28;20121;-89
2023/04/19 11:29:48;;;;;;;24.27;16.42;;;10.20;99.90;;;;;;5030812;28;20497;-89
2023/04/19 11:32:13;;;;;;;23.65;14.68;;;10.20;99.90;;;;;;5029830;28;20402;-89
2023/04/19 11:34:39;;;;;;;24.98;14.82;;;10.00;99.90;;;;;;5031171;28;20036;-90
2023/04/19 11:37:08;;;;;;;36.67;16.83;;;9.70;99.90;;;;;;5030341;28;20515;-90
2023/04/19 11:39:44;;;;;;;24.30;14.38;;;9.60;99.90;;;;;;5031261;28;20037;-89
2023/04/19 11:42:18;;;;;;;25.20;15.82;;;9.60;99.90;;;;;;5025664;28;20160;-90
2023/04/19 11:44:49;;;;;;;32.08;14.95;;;9.60;99.90;;;;;;5031583;28;20398;-89
2023/04/19 11:47:27;;;;;;;;;;;9.60;99.90;;;;;;5017929;28;20121;-90
2023/04/19 11:49:56;;;;;;;31.15;14.80;;;9.70;99.90;;;;;;5026504;28;20344;-89
2023/04/19 11:52:24;;;;;;;23.80;13.70;;;10.00;99.90;;;;;;5028676;28;20026;-90
2023/04/19 11:54:51;;;;;;;24.27;13.15;;;10.20;99.90;;;;;;5032148;28;20090;-89
2023/04/19 11:57:28;;;;;;;22.85;12.15;;;10.60;99.90;;;;;;5029351;28;20030;-89
2023/04/19 12:00:06;;;;;;;18.58;11.23;;;11.20;99.90;;;;;;5020303;28;20060;-90
2023/04/19 12:02:43;;;;;;;20.50;10.68;;;11.60;99.90;;;;;;5033070;28;20032;-90
2023/04/19 12:05:14;;;;;;;22.98;13.57;;;11.70;99.90;;;;;;5033504;28;20087;-89
2023/04/19 12:07:58;;;;;;;;;;;11.60;99.90;;;;;;5016820;28;20037;-89
2023/04/19 12:10:24;;;;;;;19.10;10.80;;;11.40;99.90;;;;;;5030909;28;19917;-89
2023/04/19 12:12:50;;;;;;;24.17;10.82;;;11.20;99.90;;;;;;5023304;28;20021;-90
2023/04/19 12:15:16;;;;;;;15.50;10.45;;;11.20;99.90;;;;;;5032051;28;20041;-89
2023/04/19 12:18:01;;;;;;;17.55;10.90;;;11.00;99.90;;;;;;5024563;28;20080;-88
2023/04/19 12:20:37;;;;;;;17.52;11.15;;;10.80;99.90;;;;;;5050757;28;20021;-89
2023/04/19 12:23:03;;;;;;;16.60;10.15;;;10.80;99.90;;;;;;5040075;28;20469;-90
2023/04/19 12:25:33;;;;;;;16.00;9.15;;;11.00;99.90;;;;;;5021943;28;20021;-88
2023/04/19 12:28:01;;;;;;;16.08;9.75;;;11.20;99.90;;;;;;5015441;28;20030;-89
2023/04/19 12:30:27;;;;;;;18.67;9.57;;;11.40;99.90;;;;;;5029133;28;20370;-89
2023/04/19 12:32:57;;;;;;;16.35;9.30;;;11.40;99.90;;;;;;5032189;28;20039;-90
2023/04/19 12:35:27;;;;;;;16.90;9.15;;;11.70;99.90;;;;;;5017688;28;20146;-90
2023/04/19 12:37:54;;;;;;;13.02;8.93;;;12.10;99.90;;;;;;5018716;28;20057;-89
2023/04/19 12:40:20;;;;;;;12.77;8.40;;;12.60;99.90;;;;;;5039550;28;20025;-90